sensor_id;sensor_type;location;lat;lon;timestamp;P1;durP1;ratioP1;P2;durP2;ratioP2
10497;SDS011;5296;51.060;13.750;2023-12-22T00:02:12;8.82;;;2.30;;
10497;SDS011;5296;51.060;13.750;2023-12-22T00:07:14;10.30;;;2.80;;
10497;SDS011;5296;51.060;13.750;2023-12-22T00:12:16;7.55;;;2.58;;
10497;SDS011;5296;51.060;13.750;2023-12-22T00:17:17;9.88;;;2.60;;
10497;SDS011;5296;51.060;13.750;2023-12-22T00:22:19;11.40;;;2.97;;
10497;SDS011;5296;51.060;13.750;2023-12-22T00:27:21;10.25;;;3.05;;
10497;SDS011;5296;51.060;13.750;2023-12-22T00:32:22;10.23;;;2.97;;
10497;SDS011;5296;51.060;13.750;2023-12-22T00:37:24;11.88;;;2.80;;
10497;SDS011;5296;51.060;13.750;2023-12-22T00:42:26;13.65;;;3.22;;
10497;SDS011;5296;51.060;13.750;2023-12-22T00:47:28;9.98;;;3.10;;
10497;SDS011;5296;51.060;13.750;2023-12-22T00:52:30;10.32;;;2.47;;
10497;SDS011;5296;51.060;13.750;2023-12-22T00:57:32;9.68;;;2.72;;
10497;SDS011;5296;51.060;13.750;2023-12-22T01:02:34;11.90;;;2.50;;
10497;SDS011;5296;51.060;13.750;2023-12-22T01:07:36;9.77;;;2.55;;
10497;SDS011;5296;51.060;13.750;2023-12-22T01:12:38;8.90;;;2.92;;
10497;SDS011;5296;51.060;13.750;2023-12-22T01:17:39;10.65;;;2.83;;
10497;SDS011;5296;51.060;13.750;2023-12-22T01:22:41;9.27;;;2.75;;
10497;SDS011;5296;51.060;13.750;2023-12-22T01:27:43;6.72;;;2.30;;
10497;SDS011;5296;51.060;13.750;2023-12-22T01:32:45;9.20;;;2.70;;
10497;SDS011;5296;51.060;13.750;2023-12-22T01:37:46;9.23;;;2.95;;
10497;SDS011;5296;51.060;13.750;2023-12-22T01:42:50;11.75;;;2.95;;
10497;SDS011;5296;51.060;13.750;2023-12-22T01:47:52;11.13;;;3.08;;
10497;SDS011;5296;51.060;13.750;2023-12-22T01:52:54;9.50;;;2.78;;
10497;SDS011;5296;51.060;13.750;2023-12-22T01:57:56;11.57;;;2.85;;
10497;SDS011;5296;51.060;13.750;2023-12-22T02:02:58;12.88;;;3.63;;
10497;SDS011;5296;51.060;13.750;2023-12-22T02:07:59;14.30;;;3.20;;
10497;SDS011;5296;51.060;13.750;2023-12-22T02:13:02;12.85;;;3.00;;
10497;SDS011;5296;51.060;13.750;2023-12-22T02:18:21;9.57;;;2.75;;
10497;SDS011;5296;51.060;13.750;2023-12-22T02:23:26;10.82;;;2.95;;
10497;SDS011;5296;51.060;13.750;2023-12-22T02:28:27;11.27;;;2.97;;
10497;SDS011;5296;51.060;13.750;2023-12-22T02:33:29;13.80;;;3.47;;
10497;SDS011;5296;51.060;13.750;2023-12-22T02:38:33;11.90;;;3.72;;
10497;SDS011;5296;51.060;13.750;2023-12-22T02:43:35;15.55;;;3.22;;
10497;SDS011;5296;51.060;13.750;2023-12-22T02:48:37;18.98;;;3.75;;
10497;SDS011;5296;51.060;13.750;2023-12-22T02:53:38;12.82;;;3.58;;
10497;SDS011;5296;51.060;13.750;2023-12-22T02:58:40;11.75;;;2.95;;
10497;SDS011;5296;51.060;13.750;2023-12-22T03:03:42;15.00;;;2.97;;
10497;SDS011;5296;51.060;13.750;2023-12-22T03:08:44;14.65;;;3.30;;
10497;SDS011;5296;51.060;13.750;2023-12-22T03:13:45;12.80;;;3.97;;
10497;SDS011;5296;51.060;13.750;2023-12-22T03:18:47;10.27;;;2.90;;
10497;SDS011;5296;51.060;13.750;2023-12-22T03:23:49;14.48;;;3.20;;
10497;SDS011;5296;51.060;13.750;2023-12-22T03:28:50;18.92;;;4.43;;
10497;SDS011;5296;51.060;13.750;2023-12-22T03:33:52;11.38;;;3.13;;
10497;SDS011;5296;51.060;13.750;2023-12-22T03:38:54;14.70;;;3.22;;
10497;SDS011;5296;51.060;13.750;2023-12-22T03:43:56;12.63;;;3.63;;
10497;SDS011;5296;51.060;13.750;2023-12-22T03:48:58;12.05;;;3.22;;
10497;SDS011;5296;51.060;13.750;2023-12-22T03:53:59;10.57;;;3.17;;
10497;SDS011;5296;51.060;13.750;2023-12-22T03:59:02;8.68;;;2.90;;
10497;SDS011;5296;51.060;13.750;2023-12-22T04:04:03;9.13;;;2.70;;
10497;SDS011;5296;51.060;13.750;2023-12-22T04:09:05;9.40;;;2.55;;
10497;SDS011;5296;51.060;13.750;2023-12-22T04:14:07;10.38;;;2.63;;
10497;SDS011;5296;51.060;13.750;2023-12-22T04:19:09;9.82;;;2.67;;
10497;SDS011;5296;51.060;13.750;2023-12-22T04:24:12;13.30;;;2.67;;
10497;SDS011;5296;51.060;13.750;2023-12-22T04:29:14;8.20;;;2.17;;
10497;SDS011;5296;51.060;13.750;2023-12-22T04:34:16;8.18;;;2.50;;
10497;SDS011;5296;51.060;13.750;2023-12-22T04:39:18;11.50;;;2.42;;
10497;SDS011;5296;51.060;13.750;2023-12-22T04:44:20;8.80;;;2.63;;
10497;SDS011;5296;51.060;13.750;2023-12-22T04:49:21;10.33;;;2.27;;
10497;SDS011;5296;51.060;13.750;2023-12-22T04:54:23;7.47;;;2.35;;
10497;SDS011;5296;51.060;13.750;2023-12-22T04:59:25;8.18;;;2.22;;
10497;SDS011;5296;51.060;13.750;2023-12-22T05:04:26;9.45;;;2.20;;
10497;SDS011;5296;51.060;13.750;2023-12-22T05:09:28;4.20;;;1.92;;
10497;SDS011;5296;51.060;13.750;2023-12-22T05:14:30;8.43;;;1.67;;
10497;SDS011;5296;51.060;13.750;2023-12-22T05:19:32;7.65;;;1.45;;
10497;SDS011;5296;51.060;13.750;2023-12-22T05:24:34;3.67;;;1.40;;
10497;SDS011;5296;51.060;13.750;2023-12-22T05:29:35;6.57;;;1.30;;
10497;SDS011;5296;51.060;13.750;2023-12-22T05:34:37;3.63;;;1.42;;
10497;SDS011;5296;51.060;13.750;2023-12-22T05:39:39;2.08;;;0.93;;
10497;SDS011;5296;51.060;13.750;2023-12-22T05:44:40;3.78;;;1.05;;
10497;SDS011;5296;51.060;13.750;2023-12-22T05:49:43;2.22;;;1.20;;
10497;SDS011;5296;51.060;13.750;2023-12-22T05:54:45;3.88;;;1.30;;
10497;SDS011;5296;51.060;13.750;2023-12-22T05:59:46;7.72;;;1.52;;
10497;SDS011;5296;51.060;13.750;2023-12-22T06:04:48;4.95;;;1.70;;
10497;SDS011;5296;51.060;13.750;2023-12-22T06:09:50;5.57;;;1.65;;
10497;SDS011;5296;51.060;13.750;2023-12-22T06:14:52;6.30;;;1.80;;
10497;SDS011;5296;51.060;13.750;2023-12-22T06:19:53;5.83;;;1.53;;
10497;SDS011;5296;51.060;13.750;2023-12-22T06:24:55;7.32;;;2.28;;
10497;SDS011;5296;51.060;13.750;2023-12-22T06:29:57;4.63;;;1.42;;
10497;SDS011;5296;51.060;13.750;2023-12-22T06:34:59;6.90;;;2.17;;
10497;SDS011;5296;51.060;13.750;2023-12-22T06:40:02;8.15;;;2.00;;
10497;SDS011;5296;51.060;13.750;2023-12-22T06:45:04;9.90;;;1.83;;
10497;SDS011;5296;51.060;13.750;2023-12-22T06:50:06;8.57;;;2.03;;
10497;SDS011;5296;51.060;13.750;2023-12-22T06:55:08;6.60;;;1.98;;
10497;SDS011;5296;51.060;13.750;2023-12-22T07:00:10;6.47;;;1.85;;
10497;SDS011;5296;51.060;13.750;2023-12-22T07:05:46;6.03;;;2.22;;
10497;SDS011;5296;51.060;13.750;2023-12-22T07:10:40;5.00;;;1.67;;
10497;SDS011;5296;51.060;13.750;2023-12-22T07:15:42;5.18;;;1.45;;
10497;SDS011;5296;51.060;13.750;2023-12-22T07:20:44;5.60;;;1.80;;
10497;SDS011;5296;51.060;13.750;2023-12-22T07:25:45;10.27;;;2.00;;
10497;SDS011;5296;51.060;13.750;2023-12-22T07:30:47;3.88;;;1.73;;
10497;SDS011;5296;51.060;13.750;2023-12-22T07:35:50;4.85;;;1.90;;
10497;SDS011;5296;51.060;13.750;2023-12-22T07:40:51;6.57;;;1.60;;
10497;SDS011;5296;51.060;13.750;2023-12-22T07:45:53;7.10;;;1.83;;
10497;SDS011;5296;51.060;13.750;2023-12-22T07:50:55;5.38;;;1.75;;
10497;SDS011;5296;51.060;13.750;2023-12-22T07:55:56;4.10;;;1.53;;
10497;SDS011;5296;51.060;13.750;2023-12-22T08:01:00;6.95;;;1.63;;
10497;SDS011;5296;51.060;13.750;2023-12-22T08:06:02;5.18;;;1.40;;
10497;SDS011;5296;51.060;13.750;2023-12-22T08:11:04;4.38;;;1.55;;
10497;SDS011;5296;51.060;13.750;2023-12-22T08:16:06;4.10;;;1.50;;
10497;SDS011;5296;51.060;13.750;2023-12-22T08:21:08;3.73;;;0.90;;
10497;SDS011;5296;51.060;13.750;2023-12-22T08:26:25;3.83;;;1.10;;
10497;SDS011;5296;51.060;13.750;2023-12-22T08:31:27;1.60;;;0.90;;
10497;SDS011;5296;51.060;13.750;2023-12-22T08:36:28;1.90;;;0.98;;
10497;SDS011;5296;51.060;13.750;2023-12-22T08:41:30;1.37;;;0.90;;
10497;SDS011;5296;51.060;13.750;2023-12-22T08:46:37;1.77;;;0.90;;
10497;SDS011;5296;51.060;13.750;2023-12-22T08:51:39;0.90;;;0.70;;
10497;SDS011;5296;51.060;13.750;2023-12-22T08:56:41;2.37;;;0.87;;
10497;SDS011;5296;51.060;13.750;2023-12-22T09:01:42;2.70;;;1.43;;
10497;SDS011;5296;51.060;13.750;2023-12-22T09:06:44;4.20;;;1.57;;
10497;SDS011;5296;51.060;13.750;2023-12-22T09:11:46;3.43;;;1.20;;
10497;SDS011;5296;51.060;13.750;2023-12-22T09:16:47;3.55;;;1.80;;
10497;SDS011;5296;51.060;13.750;2023-12-22T09:21:49;3.40;;;1.60;;
10497;SDS011;5296;51.060;13.750;2023-12-22T09:26:51;3.50;;;1.67;;
10497;SDS011;5296;51.060;13.750;2023-12-22T09:31:53;4.07;;;1.23;;
10497;SDS011;5296;51.060;13.750;2023-12-22T09:36:55;2.10;;;1.00;;
10497;SDS011;5296;51.060;13.750;2023-12-22T09:41:57;4.00;;;1.30;;
10497;SDS011;5296;51.060;13.750;2023-12-22T09:46:59;2.83;;;1.30;;
10497;SDS011;5296;51.060;13.750;2023-12-22T09:52:01;2.73;;;1.53;;
10497;SDS011;5296;51.060;13.750;2023-12-22T09:57:06;3.47;;;1.52;;
10497;SDS011;5296;51.060;13.750;2023-12-22T10:02:23;4.83;;;1.47;;
10497;SDS011;5296;51.060;13.750;2023-12-22T10:07:29;3.43;;;1.40;;
10497;SDS011;5296;51.060;13.750;2023-12-22T10:12:32;3.93;;;1.67;;
10497;SDS011;5296;51.060;13.750;2023-12-22T10:17:35;3.67;;;1.55;;
10497;SDS011;5296;51.060;13.750;2023-12-22T10:22:37;4.38;;;1.25;;
10497;SDS011;5296;51.060;13.750;2023-12-22T10:27:41;3.90;;;1.30;;
10497;SDS011;5296;51.060;13.750;2023-12-22T10:32:43;5.78;;;1.67;;
10497;SDS011;5296;51.060;13.750;2023-12-22T10:37:45;3.87;;;1.03;;
10497;SDS011;5296;51.060;13.750;2023-12-22T10:42:48;2.50;;;1.00;;
10497;SDS011;5296;51.060;13.750;2023-12-22T10:47:50;3.85;;;1.48;;
10497;SDS011;5296;51.060;13.750;2023-12-22T10:52:53;3.72;;;1.10;;
10497;SDS011;5296;51.060;13.750;2023-12-22T10:57:55;2.83;;;1.30;;
10497;SDS011;5296;51.060;13.750;2023-12-22T11:02:59;4.25;;;1.30;;
10497;SDS011;5296;51.060;13.750;2023-12-22T11:08:04;3.05;;;1.15;;
10497;SDS011;5296;51.060;13.750;2023-12-22T11:13:10;1.90;;;0.90;;
10497;SDS011;5296;51.060;13.750;2023-12-22T11:18:13;1.33;;;0.80;;
10497;SDS011;5296;51.060;13.750;2023-12-22T11:23:17;2.20;;;1.05;;
10497;SDS011;5296;51.060;13.750;2023-12-22T11:28:19;1.83;;;0.80;;
10497;SDS011;5296;51.060;13.750;2023-12-22T11:33:23;3.15;;;1.00;;
10497;SDS011;5296;51.060;13.750;2023-12-22T11:38:27;1.95;;;1.20;;
10497;SDS011;5296;51.060;13.750;2023-12-22T11:43:28;4.47;;;1.30;;
10497;SDS011;5296;51.060;13.750;2023-12-22T11:48:31;4.50;;;1.83;;
10497;SDS011;5296;51.060;13.750;2023-12-22T11:53:32;6.18;;;1.65;;
10497;SDS011;5296;51.060;13.750;2023-12-22T11:58:41;5.53;;;1.40;;
10497;SDS011;5296;51.060;13.750;2023-12-22T12:03:53;4.82;;;1.98;;
10497;SDS011;5296;51.060;13.750;2023-12-22T12:09:00;4.85;;;1.58;;
10497;SDS011;5296;51.060;13.750;2023-12-22T12:14:06;6.25;;;1.90;;
10497;SDS011;5296;51.060;13.750;2023-12-22T12:19:11;7.63;;;1.88;;
10497;SDS011;5296;51.060;13.750;2023-12-22T12:24:13;5.70;;;1.70;;
10497;SDS011;5296;51.060;13.750;2023-12-22T12:29:15;6.63;;;2.00;;
10497;SDS011;5296;51.060;13.750;2023-12-22T12:34:17;8.00;;;1.55;;
10497;SDS011;5296;51.060;13.750;2023-12-22T12:39:22;8.13;;;2.45;;
10497;SDS011;5296;51.060;13.750;2023-12-22T12:44:27;9.63;;;1.90;;
10497;SDS011;5296;51.060;13.750;2023-12-22T12:49:29;2.70;;;1.30;;
10497;SDS011;5296;51.060;13.750;2023-12-22T12:54:32;3.42;;;1.40;;
10497;SDS011;5296;51.060;13.750;2023-12-22T12:59:34;4.10;;;1.40;;
10497;SDS011;5296;51.060;13.750;2023-12-22T13:04:36;2.25;;;1.30;;
10497;SDS011;5296;51.060;13.750;2023-12-22T13:09:40;3.75;;;1.42;;
10497;SDS011;5296;51.060;13.750;2023-12-22T13:14:45;4.07;;;1.60;;
10497;SDS011;5296;51.060;13.750;2023-12-22T13:19:47;7.10;;;1.52;;
10497;SDS011;5296;51.060;13.750;2023-12-22T13:24:56;2.22;;;1.30;;
10497;SDS011;5296;51.060;13.750;2023-12-22T13:29:59;2.43;;;1.20;;
10497;SDS011;5296;51.060;13.750;2023-12-22T13:35:00;3.27;;;1.40;;
10497;SDS011;5296;51.060;13.750;2023-12-22T13:40:06;4.95;;;1.20;;
10497;SDS011;5296;51.060;13.750;2023-12-22T13:45:12;3.30;;;1.40;;
10497;SDS011;5296;51.060;13.750;2023-12-22T13:50:14;2.33;;;1.20;;
10497;SDS011;5296;51.060;13.750;2023-12-22T13:55:18;1.88;;;1.15;;
10497;SDS011;5296;51.060;13.750;2023-12-22T14:05:23;1.90;;;0.95;;
10497;SDS011;5296;51.060;13.750;2023-12-22T14:10:25;2.60;;;1.05;;
10497;SDS011;5296;51.060;13.750;2023-12-22T14:15:26;1.58;;;0.70;;
10497;SDS011;5296;51.060;13.750;2023-12-22T14:20:44;1.98;;;0.98;;
10497;SDS011;5296;51.060;13.750;2023-12-22T14:25:47;1.63;;;1.17;;
10497;SDS011;5296;51.060;13.750;2023-12-22T14:30:49;1.58;;;0.65;;
10497;SDS011;5296;51.060;13.750;2023-12-22T14:35:51;0.60;;;0.60;;
10497;SDS011;5296;51.060;13.750;2023-12-22T14:40:52;1.27;;;0.90;;
10497;SDS011;5296;51.060;13.750;2023-12-22T14:45:54;0.75;;;0.75;;
10497;SDS011;5296;51.060;13.750;2023-12-22T14:50:56;1.08;;;0.75;;
10497;SDS011;5296;51.060;13.750;2023-12-22T14:55:58;1.33;;;0.95;;
10497;SDS011;5296;51.060;13.750;2023-12-22T15:01:00;1.20;;;0.90;;
10497;SDS011;5296;51.060;13.750;2023-12-22T15:06:03;1.40;;;1.00;;
10497;SDS011;5296;51.060;13.750;2023-12-22T15:11:05;1.27;;;0.80;;
10497;SDS011;5296;51.060;13.750;2023-12-22T15:16:08;1.57;;;0.83;;
10497;SDS011;5296;51.060;13.750;2023-12-22T15:21:18;1.93;;;0.93;;
10497;SDS011;5296;51.060;13.750;2023-12-22T15:26:23;1.45;;;0.90;;
10497;SDS011;5296;51.060;13.750;2023-12-22T15:31:27;2.03;;;1.20;;
10497;SDS011;5296;51.060;13.750;2023-12-22T15:36:32;2.13;;;1.27;;
10497;SDS011;5296;51.060;13.750;2023-12-22T15:41:35;2.70;;;1.50;;
10497;SDS011;5296;51.060;13.750;2023-12-22T15:46:36;3.55;;;1.55;;
10497;SDS011;5296;51.060;13.750;2023-12-22T15:51:38;2.63;;;1.43;;
10497;SDS011;5296;51.060;13.750;2023-12-22T15:56:40;3.20;;;1.20;;
10497;SDS011;5296;51.060;13.750;2023-12-22T16:01:42;1.88;;;1.40;;
10497;SDS011;5296;51.060;13.750;2023-12-22T16:06:45;3.60;;;1.65;;
10497;SDS011;5296;51.060;13.750;2023-12-22T16:11:47;1.63;;;1.00;;
10497;SDS011;5296;51.060;13.750;2023-12-22T16:16:49;2.42;;;1.02;;
10497;SDS011;5296;51.060;13.750;2023-12-22T16:21:50;2.35;;;1.30;;
10497;SDS011;5296;51.060;13.750;2023-12-22T16:26:53;3.50;;;1.20;;
10497;SDS011;5296;51.060;13.750;2023-12-22T16:31:55;4.17;;;2.07;;
10497;SDS011;5296;51.060;13.750;2023-12-22T16:36:57;1.73;;;1.20;;
10497;SDS011;5296;51.060;13.750;2023-12-22T16:41:59;2.13;;;1.00;;
10497;SDS011;5296;51.060;13.750;2023-12-22T16:47:00;3.17;;;1.30;;
10497;SDS011;5296;51.060;13.750;2023-12-22T16:52:02;1.27;;;1.15;;
10497;SDS011;5296;51.060;13.750;2023-12-22T16:57:04;1.33;;;0.98;;
10497;SDS011;5296;51.060;13.750;2023-12-22T17:02:05;1.95;;;1.02;;
10497;SDS011;5296;51.060;13.750;2023-12-22T17:07:27;0.80;;;0.80;;
10497;SDS011;5296;51.060;13.750;2023-12-22T17:12:35;1.10;;;0.93;;
10497;SDS011;5296;51.060;13.750;2023-12-22T17:17:37;0.80;;;0.80;;
10497;SDS011;5296;51.060;13.750;2023-12-22T17:22:39;2.53;;;0.95;;
10497;SDS011;5296;51.060;13.750;2023-12-22T17:27:41;2.77;;;0.87;;
10497;SDS011;5296;51.060;13.750;2023-12-22T17:32:42;2.60;;;0.90;;
10497;SDS011;5296;51.060;13.750;2023-12-22T17:37:44;1.67;;;1.10;;
10497;SDS011;5296;51.060;13.750;2023-12-22T17:42:46;2.53;;;1.10;;
10497;SDS011;5296;51.060;13.750;2023-12-22T17:47:50;4.10;;;1.30;;
10497;SDS011;5296;51.060;13.750;2023-12-22T17:52:52;1.83;;;1.10;;
10497;SDS011;5296;51.060;13.750;2023-12-22T17:57:54;1.73;;;0.90;;
10497;SDS011;5296;51.060;13.750;2023-12-22T18:02:55;1.53;;;0.97;;
10497;SDS011;5296;51.060;13.750;2023-12-22T18:07:57;1.10;;;1.00;;
10497;SDS011;5296;51.060;13.750;2023-12-22T18:12:59;1.10;;;1.00;;
10497;SDS011;5296;51.060;13.750;2023-12-22T18:18:01;1.07;;;1.00;;
10497;SDS011;5296;51.060;13.750;2023-12-22T18:23:07;1.23;;;1.00;;
10497;SDS011;5296;51.060;13.750;2023-12-22T18:28:10;0.80;;;0.80;;
10497;SDS011;5296;51.060;13.750;2023-12-22T18:33:12;1.20;;;1.10;;
10497;SDS011;5296;51.060;13.750;2023-12-22T18:38:14;0.98;;;0.93;;
10497;SDS011;5296;51.060;13.750;2023-12-22T18:43:15;1.10;;;1.00;;
10497;SDS011;5296;51.060;13.750;2023-12-22T18:48:17;1.27;;;0.90;;
10497;SDS011;5296;51.060;13.750;2023-12-22T18:53:19;1.40;;;1.30;;
10497;SDS011;5296;51.060;13.750;2023-12-22T18:58:21;1.37;;;1.17;;
10497;SDS011;5296;51.060;13.750;2023-12-22T19:03:23;0.90;;;0.90;;
10497;SDS011;5296;51.060;13.750;2023-12-22T19:08:25;1.13;;;0.90;;
10497;SDS011;5296;51.060;13.750;2023-12-22T19:13:27;0.87;;;0.87;;
10497;SDS011;5296;51.060;13.750;2023-12-22T19:18:28;1.17;;;1.07;;
10497;SDS011;5296;51.060;13.750;2023-12-22T19:23:30;1.37;;;1.27;;
10497;SDS011;5296;51.060;13.750;2023-12-22T19:28:32;1.83;;;1.20;;
10497;SDS011;5296;51.060;13.750;2023-12-22T19:33:34;0.87;;;0.87;;
10497;SDS011;5296;51.060;13.750;2023-12-22T19:38:36;1.10;;;1.00;;
10497;SDS011;5296;51.060;13.750;2023-12-22T19:43:37;0.83;;;0.80;;
10497;SDS011;5296;51.060;13.750;2023-12-22T19:48:39;1.10;;;1.00;;
10497;SDS011;5296;51.060;13.750;2023-12-22T19:53:41;1.30;;;0.80;;
10497;SDS011;5296;51.060;13.750;2023-12-22T19:58:43;1.77;;;1.00;;
10497;SDS011;5296;51.060;13.750;2023-12-22T20:03:44;0.90;;;0.90;;
10497;SDS011;5296;51.060;13.750;2023-12-22T20:08:46;0.93;;;0.90;;
10497;SDS011;5296;51.060;13.750;2023-12-22T20:13:49;1.20;;;1.10;;
10497;SDS011;5296;51.060;13.750;2023-12-22T20:18:51;1.47;;;0.97;;
10497;SDS011;5296;51.060;13.750;2023-12-22T20:23:53;2.10;;;0.87;;
10497;SDS011;5296;51.060;13.750;2023-12-22T20:28:57;1.87;;;0.60;;
10497;SDS011;5296;51.060;13.750;2023-12-22T20:33:59;1.80;;;0.83;;
10497;SDS011;5296;51.060;13.750;2023-12-22T20:39:01;0.80;;;0.80;;
10497;SDS011;5296;51.060;13.750;2023-12-22T20:44:02;1.10;;;0.90;;
10497;SDS011;5296;51.060;13.750;2023-12-22T20:49:04;1.37;;;1.10;;
10497;SDS011;5296;51.060;13.750;2023-12-22T20:54:06;1.57;;;1.00;;
10497;SDS011;5296;51.060;13.750;2023-12-22T20:59:08;1.20;;;0.90;;
10497;SDS011;5296;51.060;13.750;2023-12-22T21:04:10;0.80;;;0.80;;
10497;SDS011;5296;51.060;13.750;2023-12-22T21:09:11;2.43;;;1.07;;
10497;SDS011;5296;51.060;13.750;2023-12-22T21:14:14;1.23;;;0.87;;
10497;SDS011;5296;51.060;13.750;2023-12-22T21:19:16;1.17;;;0.70;;
10497;SDS011;5296;51.060;13.750;2023-12-22T21:24:18;0.73;;;0.57;;
10497;SDS011;5296;51.060;13.750;2023-12-22T21:29:20;1.60;;;0.83;;
10497;SDS011;5296;51.060;13.750;2023-12-22T21:34:22;1.13;;;0.80;;
10497;SDS011;5296;51.060;13.750;2023-12-22T21:39:24;1.53;;;1.00;;
10497;SDS011;5296;51.060;13.750;2023-12-22T21:44:25;2.20;;;0.80;;
10497;SDS011;5296;51.060;13.750;2023-12-22T21:49:27;1.37;;;0.73;;
10497;SDS011;5296;51.060;13.750;2023-12-22T21:54:29;0.97;;;0.70;;
10497;SDS011;5296;51.060;13.750;2023-12-22T21:59:30;1.63;;;0.70;;
10497;SDS011;5296;51.060;13.750;2023-12-22T22:04:32;0.93;;;0.77;;
10497;SDS011;5296;51.060;13.750;2023-12-22T22:09:34;0.90;;;0.70;;
10497;SDS011;5296;51.060;13.750;2023-12-22T22:14:36;0.80;;;0.70;;
10497;SDS011;5296;51.060;13.750;2023-12-22T22:19:38;0.70;;;0.70;;
10497;SDS011;5296;51.060;13.750;2023-12-22T22:24:40;0.70;;;0.70;;
10497;SDS011;5296;51.060;13.750;2023-12-22T22:29:42;0.65;;;0.65;;
10497;SDS011;5296;51.060;13.750;2023-12-22T22:34:44;0.70;;;0.70;;
10497;SDS011;5296;51.060;13.750;2023-12-22T22:39:45;0.57;;;0.57;;
10497;SDS011;5296;51.060;13.750;2023-12-22T22:44:47;0.60;;;0.60;;
10497;SDS011;5296;51.060;13.750;2023-12-22T22:49:49;0.53;;;0.53;;
10497;SDS011;5296;51.060;13.750;2023-12-22T22:54:50;0.40;;;0.40;;
10497;SDS011;5296;51.060;13.750;2023-12-22T22:59:52;0.63;;;0.63;;
10497;SDS011;5296;51.060;13.750;2023-12-22T23:04:54;0.60;;;0.60;;
10497;SDS011;5296;51.060;13.750;2023-12-22T23:09:56;0.50;;;0.50;;
10497;SDS011;5296;51.060;13.750;2023-12-22T23:14:58;1.90;;;0.80;;
10497;SDS011;5296;51.060;13.750;2023-12-22T23:20:00;0.60;;;0.60;;
10497;SDS011;5296;51.060;13.750;2023-12-22T23:25:02;0.50;;;0.50;;
10497;SDS011;5296;51.060;13.750;2023-12-22T23:30:05;0.90;;;0.50;;
10497;SDS011;5296;51.060;13.750;2023-12-22T23:35:07;0.70;;;0.70;;
10497;SDS011;5296;51.060;13.750;2023-12-22T23:40:09;0.50;;;0.50;;
10497;SDS011;5296;51.060;13.750;2023-12-22T23:45:12;2.20;;;0.47;;
10497;SDS011;5296;51.060;13.750;2023-12-22T23:50:13;0.40;;;0.40;;
10497;SDS011;5296;51.060;13.750;2023-12-22T23:55:15;1.33;;;0.67;;
